• Join FlightAware (Why Join?)
  • Login
  • US Flag 
04:31PM EDT


 

Airport Tracker/Info


-or-


 

Live Flight TrackerFlight Track Log ✈ COM2998 ✈ 16-May-2012 ✈ KORD - KCVG

Flight Track Log - Related Links

Times and Time Zones

All times are in EDT time to prevent confusion due to time zone crossing. See the COM2998 flight status page for this flight to view local times or setup timezone preferences in your user account.

Time Position Orientation Groundspeed Altitude Reporting Facility
EDT Latitude Longitude Course Direction KTS MPH feet Rate Location/Type
12:08PM 41.9833 -87.8667 143° Southeast 155 178 1,900  Level Chicago TRACON
12:09PM 41.9333 -87.8167 177° South 233 268 3,600 2,040 Climbing Chicago TRACON
12:11PM 41.7606 -87.8050 163° South 283 326 8,600 2,040 Climbing Chicago Center
12:12PM 41.6831 -87.7733 148° Southeast 289 333 10,300 2,040 Climbing Chicago Center
12:13PM 41.6092 -87.7114 152° Southeast 316 364 12,700 2,220 Climbing Chicago Center
12:14PM 41.5311 -87.6550 150° Southeast 321 369 14,800 1,560 Climbing Chicago Center
12:15PM 41.4575 -87.5989 150° Southeast 326 375 15,900 1,320 Climbing Chicago Center
12:16PM 41.3689 -87.5294 150° Southeast 348 400 17,500 1,440 Climbing Chicago Center
12:17PM 41.2758 -87.4572 151° Southeast 370 426 18,800 1,380 Climbing Chicago Center
12:18PM 41.1831 -87.3883 149° Southeast 387 445 20,300 1,500 Climbing Chicago Center
12:19PM 41.0878 -87.3139 151° Southeast 393 452 21,800 1,320 Climbing Chicago Center
12:20PM 40.9928 -87.2428 151° Southeast 393 452 23,000 600 Climbing Chicago Center
12:21PM 40.8933 -87.1689 149° Southeast 398 458 23,000  Level Chicago Center
12:22PM 40.7958 -87.0925 152° Southeast 398 458 23,000  Level Chicago Center
12:23PM 40.6861 -87.0169 149° Southeast 403 464 23,000  Level Chicago Center
12:25PM 40.5864 -86.9386 151° Southeast 403 464 23,000  Level Chicago Center
12:26PM 40.4147 -86.8122 150° Southeast 417 480 23,000  Level Indianapolis Center
12:27PM 40.3167 -86.7394 151° Southeast 411 473 23,000  Level Indianapolis Center
12:28PM 40.2186 -86.6669 151° Southeast 411 473 23,000  Level Indianapolis Center
12:29PM 40.1183 -86.5947 150° Southeast 411 473 23,000  Level Indianapolis Center
12:30PM 40.0181 -86.5200 150° Southeast 411 473 23,000  Level Indianapolis Center
12:31PM 39.9219 -86.4481 147° Southeast 411 473 23,000 -60 Level Indianapolis Center
12:32PM 39.8156 -86.3572 114° Southeast 411 473 22,900 -1,560 Descending Indianapolis Center
12:33PM 39.7667 -86.2167 116° Southeast 438 504 20,000 -3,000 Descending Indianapolis TRACON
12:34PM 39.7167 -86.0833 110° East 437 503 17,100 -2,880 Descending Indianapolis TRACON
12:35PM 39.6833 -85.9667 116° Southeast 421 484 14,600 -1,920 Descending Indianapolis TRACON
12:36PM 39.6333 -85.8333 113° Southeast 386 444 13,500 -1,140 Descending Indianapolis TRACON
12:37PM 39.5833 -85.6833 112° Southeast 375 432 12,300 -1,020 Descending Indianapolis TRACON
12:38PM 39.5500 -85.5739 118° Southeast 373 429 11,300 -660 Descending Indianapolis Center
12:39PM 39.5019 -85.4569 116° Southeast 368 423 11,000 -1,020 Descending Indianapolis Center
12:41PM 39.4167 -85.2333 99° East 311 358 8,200 -1,020 Descending Cincinnati TRACON
12:42PM 39.4047 -85.1317 101° East 304 350 8,000 -420 Descending Indianapolis Center
12:43PM 39.3894 -85.0267 106° East 299 344 7,500 -780 Descending Indianapolis Center
12:44PM 39.3675 -84.9267 114° Southeast 294 338 6,500 -900 Descending Indianapolis Center
12:47PM 39.2833 -84.6833 166° South 213 245 4,100 -660 Descending Cincinnati TRACON
12:48PM 39.2333 -84.6667 166° South 200 230 4,100 -420 Level Cincinnati TRACON
12:49PM 39.1833 -84.6500 180° South 200 230 3,300 -1,020 Descending Cincinnati TRACON
12:50PM 39.1167 -84.6500 180° South 197 227 2,100 -1,020 Descending Cincinnati TRACON
12:51PM 39.0833 -84.6500 180° South 165 190 1,300 -840 Descending Cincinnati TRACON